sensor_id;sensor_type;location;lat;lon;timestamp;P1;durP1;ratioP1;P2;durP2;ratioP2
71677;SDS011;59511;52.136;6.206;2023-10-31T00:00:17;22.48;;;13.15;;
71677;SDS011;59511;52.136;6.206;2023-10-31T00:02:42;22.43;;;13.80;;
71677;SDS011;59511;52.136;6.206;2023-10-31T00:05:08;21.55;;;12.80;;
71677;SDS011;59511;52.136;6.206;2023-10-31T00:07:33;23.40;;;14.00;;
71677;SDS011;59511;52.136;6.206;2023-10-31T00:09:58;21.37;;;13.20;;
71677;SDS011;59511;52.136;6.206;2023-10-31T00:12:24;21.07;;;12.73;;
71677;SDS011;59511;52.136;6.206;2023-10-31T00:14:49;21.90;;;12.83;;
71677;SDS011;59511;52.136;6.206;2023-10-31T00:17:15;20.27;;;12.03;;
71677;SDS011;59511;52.136;6.206;2023-10-31T00:19:40;21.38;;;12.20;;
71677;SDS011;59511;52.136;6.206;2023-10-31T00:22:05;20.03;;;12.47;;
71677;SDS011;59511;52.136;6.206;2023-10-31T00:24:31;21.57;;;12.87;;
71677;SDS011;59511;52.136;6.206;2023-10-31T00:26:57;20.45;;;11.95;;
71677;SDS011;59511;52.136;6.206;2023-10-31T00:29:22;20.70;;;11.77;;
71677;SDS011;59511;52.136;6.206;2023-10-31T00:31:48;19.73;;;11.53;;
71677;SDS011;59511;52.136;6.206;2023-10-31T00:34:13;19.43;;;11.60;;
71677;SDS011;59511;52.136;6.206;2023-10-31T00:36:38;18.13;;;11.23;;
71677;SDS011;59511;52.136;6.206;2023-10-31T00:39:04;16.43;;;10.00;;
71677;SDS011;59511;52.136;6.206;2023-10-31T00:41:30;18.03;;;10.50;;
71677;SDS011;59511;52.136;6.206;2023-10-31T00:43:55;18.45;;;11.13;;
71677;SDS011;59511;52.136;6.206;2023-10-31T00:46:20;16.00;;;9.43;;
71677;SDS011;59511;52.136;6.206;2023-10-31T00:48:46;18.80;;;11.20;;
71677;SDS011;59511;52.136;6.206;2023-10-31T00:51:12;16.97;;;10.40;;
71677;SDS011;59511;52.136;6.206;2023-10-31T00:53:37;18.02;;;10.32;;
71677;SDS011;59511;52.136;6.206;2023-10-31T00:56:02;16.27;;;9.33;;
71677;SDS011;59511;52.136;6.206;2023-10-31T00:58:28;16.30;;;9.30;;
71677;SDS011;59511;52.136;6.206;2023-10-31T01:00:54;16.23;;;9.48;;
71677;SDS011;59511;52.136;6.206;2023-10-31T01:03:19;15.67;;;9.50;;
71677;SDS011;59511;52.136;6.206;2023-10-31T01:05:45;14.93;;;9.07;;
71677;SDS011;59511;52.136;6.206;2023-10-31T01:08:10;16.13;;;9.03;;
71677;SDS011;59511;52.136;6.206;2023-10-31T01:10:36;15.85;;;9.48;;
71677;SDS011;59511;52.136;6.206;2023-10-31T01:13:02;15.23;;;8.90;;
71677;SDS011;59511;52.136;6.206;2023-10-31T01:15:27;15.40;;;9.47;;
71677;SDS011;59511;52.136;6.206;2023-10-31T01:17:52;15.48;;;9.05;;
71677;SDS011;59511;52.136;6.206;2023-10-31T01:20:18;15.80;;;9.40;;
71677;SDS011;59511;52.136;6.206;2023-10-31T01:22:43;15.00;;;8.40;;
71677;SDS011;59511;52.136;6.206;2023-10-31T01:25:08;13.27;;;7.87;;
71677;SDS011;59511;52.136;6.206;2023-10-31T01:27:34;14.05;;;7.93;;
71677;SDS011;59511;52.136;6.206;2023-10-31T01:30:00;14.27;;;8.10;;
71677;SDS011;59511;52.136;6.206;2023-10-31T01:32:25;13.53;;;8.27;;
71677;SDS011;59511;52.136;6.206;2023-10-31T01:34:51;12.57;;;8.20;;
71677;SDS011;59511;52.136;6.206;2023-10-31T01:37:16;12.55;;;7.80;;
71677;SDS011;59511;52.136;6.206;2023-10-31T01:39:44;13.97;;;8.40;;
71677;SDS011;59511;52.136;6.206;2023-10-31T01:42:09;13.82;;;7.80;;
71677;SDS011;59511;52.136;6.206;2023-10-31T01:44:35;13.47;;;7.70;;
71677;SDS011;59511;52.136;6.206;2023-10-31T01:47:00;13.20;;;7.80;;
71677;SDS011;59511;52.136;6.206;2023-10-31T01:49:25;12.43;;;6.87;;
71677;SDS011;59511;52.136;6.206;2023-10-31T01:51:51;13.18;;;7.50;;
71677;SDS011;59511;52.136;6.206;2023-10-31T01:54:17;12.70;;;7.40;;
71677;SDS011;59511;52.136;6.206;2023-10-31T01:56:42;12.10;;;6.95;;
71677;SDS011;59511;52.136;6.206;2023-10-31T01:59:09;12.10;;;6.83;;
71677;SDS011;59511;52.136;6.206;2023-10-31T02:01:40;13.13;;;7.10;;
71677;SDS011;59511;52.136;6.206;2023-10-31T02:04:06;10.65;;;6.28;;
71677;SDS011;59511;52.136;6.206;2023-10-31T02:06:32;12.10;;;7.50;;
71677;SDS011;59511;52.136;6.206;2023-10-31T02:08:57;11.33;;;6.73;;
71677;SDS011;59511;52.136;6.206;2023-10-31T02:11:23;11.67;;;6.60;;
71677;SDS011;59511;52.136;6.206;2023-10-31T02:13:48;13.20;;;7.63;;
71677;SDS011;59511;52.136;6.206;2023-10-31T02:16:13;10.70;;;6.68;;
71677;SDS011;59511;52.136;6.206;2023-10-31T02:18:39;13.27;;;7.50;;
71677;SDS011;59511;52.136;6.206;2023-10-31T02:21:04;10.87;;;6.33;;
71677;SDS011;59511;52.136;6.206;2023-10-31T02:23:29;11.73;;;6.77;;
71677;SDS011;59511;52.136;6.206;2023-10-31T02:25:55;11.47;;;6.63;;
71677;SDS011;59511;52.136;6.206;2023-10-31T02:28:20;11.90;;;6.90;;
71677;SDS011;59511;52.136;6.206;2023-10-31T02:30:46;10.63;;;6.40;;
71677;SDS011;59511;52.136;6.206;2023-10-31T02:33:11;10.83;;;6.40;;
71677;SDS011;59511;52.136;6.206;2023-10-31T02:35:37;11.37;;;6.60;;
71677;SDS011;59511;52.136;6.206;2023-10-31T02:38:02;11.20;;;6.35;;
71677;SDS011;59511;52.136;6.206;2023-10-31T02:40:28;11.93;;;7.07;;
71677;SDS011;59511;52.136;6.206;2023-10-31T02:42:53;10.70;;;6.57;;
71677;SDS011;59511;52.136;6.206;2023-10-31T02:45:19;12.27;;;7.07;;
71677;SDS011;59511;52.136;6.206;2023-10-31T02:47:44;12.63;;;6.80;;
71677;SDS011;59511;52.136;6.206;2023-10-31T02:50:10;11.93;;;6.90;;
71677;SDS011;59511;52.136;6.206;2023-10-31T02:52:35;11.27;;;6.77;;
71677;SDS011;59511;52.136;6.206;2023-10-31T02:55:01;11.65;;;6.88;;
71677;SDS011;59511;52.136;6.206;2023-10-31T02:57:27;11.63;;;6.63;;
71677;SDS011;59511;52.136;6.206;2023-10-31T02:59:52;12.00;;;7.07;;
71677;SDS011;59511;52.136;6.206;2023-10-31T03:02:18;11.30;;;6.63;;
71677;SDS011;59511;52.136;6.206;2023-10-31T03:04:43;11.70;;;6.87;;
71677;SDS011;59511;52.136;6.206;2023-10-31T03:07:08;11.05;;;6.28;;
71677;SDS011;59511;52.136;6.206;2023-10-31T03:09:34;10.90;;;6.37;;
71677;SDS011;59511;52.136;6.206;2023-10-31T03:11:59;11.87;;;6.10;;
71677;SDS011;59511;52.136;6.206;2023-10-31T03:14:24;11.93;;;6.83;;
71677;SDS011;59511;52.136;6.206;2023-10-31T03:16:50;12.53;;;7.07;;
71677;SDS011;59511;52.136;6.206;2023-10-31T03:19:15;12.57;;;6.80;;
71677;SDS011;59511;52.136;6.206;2023-10-31T03:21:41;10.93;;;6.57;;
71677;SDS011;59511;52.136;6.206;2023-10-31T03:24:06;11.80;;;6.90;;
71677;SDS011;59511;52.136;6.206;2023-10-31T03:26:31;11.73;;;6.50;;
71677;SDS011;59511;52.136;6.206;2023-10-31T03:28:57;12.97;;;7.00;;
71677;SDS011;59511;52.136;6.206;2023-10-31T03:31:23;12.70;;;6.87;;
71677;SDS011;59511;52.136;6.206;2023-10-31T03:33:49;13.10;;;6.63;;
71677;SDS011;59511;52.136;6.206;2023-10-31T03:36:15;12.02;;;6.90;;
71677;SDS011;59511;52.136;6.206;2023-10-31T03:38:40;10.93;;;6.57;;
71677;SDS011;59511;52.136;6.206;2023-10-31T03:41:05;11.77;;;6.57;;
71677;SDS011;59511;52.136;6.206;2023-10-31T03:43:31;11.67;;;6.23;;
71677;SDS011;59511;52.136;6.206;2023-10-31T03:45:56;12.30;;;6.90;;
71677;SDS011;59511;52.136;6.206;2023-10-31T03:48:22;10.23;;;6.37;;
71677;SDS011;59511;52.136;6.206;2023-10-31T03:50:47;12.10;;;6.60;;
71677;SDS011;59511;52.136;6.206;2023-10-31T03:53:13;11.98;;;6.68;;
71677;SDS011;59511;52.136;6.206;2023-10-31T03:55:38;12.53;;;6.57;;
71677;SDS011;59511;52.136;6.206;2023-10-31T03:58:03;12.53;;;7.30;;
71677;SDS011;59511;52.136;6.206;2023-10-31T04:00:29;11.60;;;6.90;;
71677;SDS011;59511;52.136;6.206;2023-10-31T04:02:55;12.48;;;6.93;;
71677;SDS011;59511;52.136;6.206;2023-10-31T04:05:20;12.07;;;6.80;;
71677;SDS011;59511;52.136;6.206;2023-10-31T04:07:46;12.73;;;7.40;;
71677;SDS011;59511;52.136;6.206;2023-10-31T04:10:12;10.70;;;6.07;;
71677;SDS011;59511;52.136;6.206;2023-10-31T04:12:38;12.88;;;6.70;;
71677;SDS011;59511;52.136;6.206;2023-10-31T04:15:04;12.73;;;7.17;;
71677;SDS011;59511;52.136;6.206;2023-10-31T04:17:29;12.50;;;6.40;;
71677;SDS011;59511;52.136;6.206;2023-10-31T04:19:55;11.07;;;6.50;;
71677;SDS011;59511;52.136;6.206;2023-10-31T04:22:21;12.37;;;6.90;;
71677;SDS011;59511;52.136;6.206;2023-10-31T04:24:46;13.17;;;7.47;;
71677;SDS011;59511;52.136;6.206;2023-10-31T04:27:11;12.00;;;7.00;;
71677;SDS011;59511;52.136;6.206;2023-10-31T04:29:37;11.27;;;6.83;;
71677;SDS011;59511;52.136;6.206;2023-10-31T04:32:02;11.18;;;6.63;;
71677;SDS011;59511;52.136;6.206;2023-10-31T04:34:28;10.77;;;6.37;;
71677;SDS011;59511;52.136;6.206;2023-10-31T04:36:53;9.57;;;5.80;;
71677;SDS011;59511;52.136;6.206;2023-10-31T04:39:19;11.07;;;6.40;;
71677;SDS011;59511;52.136;6.206;2023-10-31T04:41:44;10.67;;;6.03;;
71677;SDS011;59511;52.136;6.206;2023-10-31T04:44:09;10.67;;;6.33;;
71677;SDS011;59511;52.136;6.206;2023-10-31T04:46:35;11.70;;;6.57;;
71677;SDS011;59511;52.136;6.206;2023-10-31T04:49:00;11.63;;;6.23;;
71677;SDS011;59511;52.136;6.206;2023-10-31T04:51:25;11.23;;;6.10;;
71677;SDS011;59511;52.136;6.206;2023-10-31T04:53:51;11.97;;;7.00;;
71677;SDS011;59511;52.136;6.206;2023-10-31T04:56:16;10.15;;;6.05;;
71677;SDS011;59511;52.136;6.206;2023-10-31T04:58:42;11.70;;;6.07;;
71677;SDS011;59511;52.136;6.206;2023-10-31T05:01:11;10.60;;;6.30;;
71677;SDS011;59511;52.136;6.206;2023-10-31T05:03:37;10.52;;;5.85;;
71677;SDS011;59511;52.136;6.206;2023-10-31T05:06:03;10.50;;;6.45;;
71677;SDS011;59511;52.136;6.206;2023-10-31T05:08:29;9.70;;;5.60;;
71677;SDS011;59511;52.136;6.206;2023-10-31T05:10:55;11.13;;;6.47;;
71677;SDS011;59511;52.136;6.206;2023-10-31T05:13:20;10.13;;;5.73;;
71677;SDS011;59511;52.136;6.206;2023-10-31T05:15:46;10.77;;;6.17;;
71677;SDS011;59511;52.136;6.206;2023-10-31T05:18:11;10.33;;;6.33;;
71677;SDS011;59511;52.136;6.206;2023-10-31T05:20:36;12.03;;;6.40;;
71677;SDS011;59511;52.136;6.206;2023-10-31T05:23:02;10.23;;;6.07;;
71677;SDS011;59511;52.136;6.206;2023-10-31T05:25:27;10.30;;;5.87;;
71677;SDS011;59511;52.136;6.206;2023-10-31T05:27:53;10.00;;;6.00;;
71677;SDS011;59511;52.136;6.206;2023-10-31T05:30:18;10.77;;;6.07;;
71677;SDS011;59511;52.136;6.206;2023-10-31T05:32:44;10.60;;;5.93;;
71677;SDS011;59511;52.136;6.206;2023-10-31T05:35:10;9.47;;;5.47;;
71677;SDS011;59511;52.136;6.206;2023-10-31T05:37:35;10.60;;;5.82;;
71677;SDS011;59511;52.136;6.206;2023-10-31T05:40:01;9.27;;;5.30;;
71677;SDS011;59511;52.136;6.206;2023-10-31T05:42:26;9.50;;;5.50;;
71677;SDS011;59511;52.136;6.206;2023-10-31T05:44:52;8.70;;;4.93;;
71677;SDS011;59511;52.136;6.206;2023-10-31T05:47:18;10.55;;;5.70;;
71677;SDS011;59511;52.136;6.206;2023-10-31T05:49:44;8.23;;;4.93;;
71677;SDS011;59511;52.136;6.206;2023-10-31T05:52:09;9.43;;;5.53;;
71677;SDS011;59511;52.136;6.206;2023-10-31T05:54:35;9.73;;;5.47;;
71677;SDS011;59511;52.136;6.206;2023-10-31T05:57:00;8.63;;;5.47;;
71677;SDS011;59511;52.136;6.206;2023-10-31T05:59:25;9.60;;;5.10;;
71677;SDS011;59511;52.136;6.206;2023-10-31T06:01:51;9.40;;;5.57;;
71677;SDS011;59511;52.136;6.206;2023-10-31T06:04:16;8.30;;;4.85;;
71677;SDS011;59511;52.136;6.206;2023-10-31T06:06:42;8.30;;;4.90;;
71677;SDS011;59511;52.136;6.206;2023-10-31T06:09:07;8.60;;;5.10;;
71677;SDS011;59511;52.136;6.206;2023-10-31T06:11:35;8.77;;;5.00;;
71677;SDS011;59511;52.136;6.206;2023-10-31T06:14:00;7.93;;;4.77;;
71677;SDS011;59511;52.136;6.206;2023-10-31T06:16:25;8.67;;;4.97;;
71677;SDS011;59511;52.136;6.206;2023-10-31T06:18:50;8.63;;;5.00;;
71677;SDS011;59511;52.136;6.206;2023-10-31T06:21:16;8.60;;;5.10;;
71677;SDS011;59511;52.136;6.206;2023-10-31T06:23:41;8.10;;;5.03;;
71677;SDS011;59511;52.136;6.206;2023-10-31T06:26:09;8.95;;;5.05;;
71677;SDS011;59511;52.136;6.206;2023-10-31T06:28:34;8.30;;;4.73;;
71677;SDS011;59511;52.136;6.206;2023-10-31T06:31:02;7.50;;;4.78;;
71677;SDS011;59511;52.136;6.206;2023-10-31T06:33:27;7.80;;;4.55;;
71677;SDS011;59511;52.136;6.206;2023-10-31T06:35:53;6.53;;;4.23;;
71677;SDS011;59511;52.136;6.206;2023-10-31T06:38:19;7.50;;;4.50;;
71677;SDS011;59511;52.136;6.206;2023-10-31T06:40:44;7.97;;;4.80;;
71677;SDS011;59511;52.136;6.206;2023-10-31T06:43:10;7.73;;;4.17;;
71677;SDS011;59511;52.136;6.206;2023-10-31T06:45:36;8.07;;;4.80;;
71677;SDS011;59511;52.136;6.206;2023-10-31T06:48:02;7.60;;;4.32;;
71677;SDS011;59511;52.136;6.206;2023-10-31T06:50:27;8.13;;;4.40;;
71677;SDS011;59511;52.136;6.206;2023-10-31T06:52:53;7.95;;;4.47;;
71677;SDS011;59511;52.136;6.206;2023-10-31T06:55:18;8.07;;;4.17;;
71677;SDS011;59511;52.136;6.206;2023-10-31T06:57:44;7.43;;;4.57;;
71677;SDS011;59511;52.136;6.206;2023-10-31T07:00:10;7.67;;;4.40;;
71677;SDS011;59511;52.136;6.206;2023-10-31T07:02:36;7.20;;;4.43;;
71677;SDS011;59511;52.136;6.206;2023-10-31T07:05:02;8.00;;;4.43;;
71677;SDS011;59511;52.136;6.206;2023-10-31T07:07:30;6.43;;;3.80;;
71677;SDS011;59511;52.136;6.206;2023-10-31T07:09:55;7.13;;;4.27;;
71677;SDS011;59511;52.136;6.206;2023-10-31T07:12:21;7.30;;;4.27;;
71677;SDS011;59511;52.136;6.206;2023-10-31T07:14:46;8.02;;;4.35;;
71677;SDS011;59511;52.136;6.206;2023-10-31T07:17:12;7.47;;;4.40;;
71677;SDS011;59511;52.136;6.206;2023-10-31T07:19:37;7.57;;;4.20;;
71677;SDS011;59511;52.136;6.206;2023-10-31T07:22:02;8.40;;;4.40;;
71677;SDS011;59511;52.136;6.206;2023-10-31T07:24:28;7.70;;;4.45;;
71677;SDS011;59511;52.136;6.206;2023-10-31T07:26:54;7.87;;;4.03;;
71677;SDS011;59511;52.136;6.206;2023-10-31T07:29:19;7.43;;;4.38;;
71677;SDS011;59511;52.136;6.206;2023-10-31T07:31:45;8.33;;;5.00;;
71677;SDS011;59511;52.136;6.206;2023-10-31T07:34:10;7.40;;;4.13;;
71677;SDS011;59511;52.136;6.206;2023-10-31T07:36:38;7.05;;;4.25;;
71677;SDS011;59511;52.136;6.206;2023-10-31T07:39:06;7.40;;;4.10;;
71677;SDS011;59511;52.136;6.206;2023-10-31T07:41:31;7.90;;;4.25;;
71677;SDS011;59511;52.136;6.206;2023-10-31T07:43:57;6.90;;;3.87;;
71677;SDS011;59511;52.136;6.206;2023-10-31T07:46:22;7.20;;;4.30;;
71677;SDS011;59511;52.136;6.206;2023-10-31T07:48:48;8.60;;;3.90;;
71677;SDS011;59511;52.136;6.206;2023-10-31T07:51:14;6.18;;;3.58;;
71677;SDS011;59511;52.136;6.206;2023-10-31T07:53:39;7.13;;;4.20;;
71677;SDS011;59511;52.136;6.206;2023-10-31T07:56:14;7.03;;;3.60;;
71677;SDS011;59511;52.136;6.206;2023-10-31T07:58:40;6.63;;;3.92;;
71677;SDS011;59511;52.136;6.206;2023-10-31T08:01:05;6.73;;;3.43;;
71677;SDS011;59511;52.136;6.206;2023-10-31T08:03:36;8.07;;;3.85;;
71677;SDS011;59511;52.136;6.206;2023-10-31T08:06:03;7.40;;;4.07;;
71677;SDS011;59511;52.136;6.206;2023-10-31T08:08:30;7.93;;;3.97;;
71677;SDS011;59511;52.136;6.206;2023-10-31T08:10:55;6.47;;;3.87;;
71677;SDS011;59511;52.136;6.206;2023-10-31T08:13:22;6.45;;;3.63;;
71677;SDS011;59511;52.136;6.206;2023-10-31T08:15:47;7.33;;;4.10;;
71677;SDS011;59511;52.136;6.206;2023-10-31T08:18:13;6.95;;;3.83;;
71677;SDS011;59511;52.136;6.206;2023-10-31T08:20:38;7.83;;;3.80;;
71677;SDS011;59511;52.136;6.206;2023-10-31T08:23:04;6.93;;;3.80;;
71677;SDS011;59511;52.136;6.206;2023-10-31T08:25:29;6.00;;;3.53;;
71677;SDS011;59511;52.136;6.206;2023-10-31T08:27:54;6.85;;;3.58;;
71677;SDS011;59511;52.136;6.206;2023-10-31T08:30:20;7.67;;;4.17;;
71677;SDS011;59511;52.136;6.206;2023-10-31T08:32:45;6.43;;;3.53;;
71677;SDS011;59511;52.136;6.206;2023-10-31T08:35:13;6.13;;;3.40;;
71677;SDS011;59511;52.136;6.206;2023-10-31T08:37:39;7.27;;;3.53;;
71677;SDS011;59511;52.136;6.206;2023-10-31T08:40:04;7.23;;;4.07;;
71677;SDS011;59511;52.136;6.206;2023-10-31T08:42:30;6.68;;;3.67;;
71677;SDS011;59511;52.136;6.206;2023-10-31T08:44:56;7.23;;;3.83;;
71677;SDS011;59511;52.136;6.206;2023-10-31T08:47:21;6.93;;;4.00;;
71677;SDS011;59511;52.136;6.206;2023-10-31T08:49:47;6.45;;;3.88;;
71677;SDS011;59511;52.136;6.206;2023-10-31T08:52:13;7.10;;;3.80;;
71677;SDS011;59511;52.136;6.206;2023-10-31T08:54:38;7.17;;;4.30;;
71677;SDS011;59511;52.136;6.206;2023-10-31T08:57:04;6.73;;;3.63;;
71677;SDS011;59511;52.136;6.206;2023-10-31T08:59:29;7.30;;;3.97;;
71677;SDS011;59511;52.136;6.206;2023-10-31T09:01:55;6.60;;;4.17;;
71677;SDS011;59511;52.136;6.206;2023-10-31T09:04:20;7.43;;;4.30;;
71677;SDS011;59511;52.136;6.206;2023-10-31T09:06:45;8.07;;;4.30;;
71677;SDS011;59511;52.136;6.206;2023-10-31T09:09:11;8.63;;;4.22;;
71677;SDS011;59511;52.136;6.206;2023-10-31T09:11:36;7.40;;;4.30;;
71677;SDS011;59511;52.136;6.206;2023-10-31T09:14:01;8.27;;;4.47;;
71677;SDS011;59511;52.136;6.206;2023-10-31T09:16:27;8.07;;;4.33;;
71677;SDS011;59511;52.136;6.206;2023-10-31T09:18:52;9.73;;;4.70;;
71677;SDS011;59511;52.136;6.206;2023-10-31T09:21:18;8.10;;;4.60;;
71677;SDS011;59511;52.136;6.206;2023-10-31T09:23:43;8.30;;;4.45;;
71677;SDS011;59511;52.136;6.206;2023-10-31T09:26:08;8.13;;;4.67;;
71677;SDS011;59511;52.136;6.206;2023-10-31T09:28:35;7.20;;;4.40;;
71677;SDS011;59511;52.136;6.206;2023-10-31T09:31:02;7.15;;;4.45;;
71677;SDS011;59511;52.136;6.206;2023-10-31T09:33:27;7.37;;;4.13;;
71677;SDS011;59511;52.136;6.206;2023-10-31T09:35:52;7.53;;;4.10;;
71677;SDS011;59511;52.136;6.206;2023-10-31T09:38:18;8.27;;;4.87;;
71677;SDS011;59511;52.136;6.206;2023-10-31T09:40:43;7.78;;;4.53;;
71677;SDS011;59511;52.136;6.206;2023-10-31T09:43:08;7.47;;;4.80;;
71677;SDS011;59511;52.136;6.206;2023-10-31T09:45:34;8.20;;;4.40;;
71677;SDS011;59511;52.136;6.206;2023-10-31T09:48:00;7.33;;;4.53;;
71677;SDS011;59511;52.136;6.206;2023-10-31T09:50:26;8.18;;;4.70;;
71677;SDS011;59511;52.136;6.206;2023-10-31T09:52:52;8.68;;;4.88;;
71677;SDS011;59511;52.136;6.206;2023-10-31T09:55:18;7.60;;;4.23;;
71677;SDS011;59511;52.136;6.206;2023-10-31T09:57:44;7.50;;;4.63;;
71677;SDS011;59511;52.136;6.206;2023-10-31T10:00:10;7.97;;;4.65;;
71677;SDS011;59511;52.136;6.206;2023-10-31T10:02:36;8.83;;;4.80;;
71677;SDS011;59511;52.136;6.206;2023-10-31T10:05:01;8.70;;;4.90;;
71677;SDS011;59511;52.136;6.206;2023-10-31T10:07:27;7.75;;;4.75;;
71677;SDS011;59511;52.136;6.206;2023-10-31T10:09:52;8.27;;;4.87;;
71677;SDS011;59511;52.136;6.206;2023-10-31T10:12:18;8.20;;;4.83;;
71677;SDS011;59511;52.136;6.206;2023-10-31T10:14:46;7.90;;;4.70;;
71677;SDS011;59511;52.136;6.206;2023-10-31T10:17:16;10.03;;;5.70;;
71677;SDS011;59511;52.136;6.206;2023-10-31T10:19:43;8.05;;;4.68;;
71677;SDS011;59511;52.136;6.206;2023-10-31T10:22:09;9.13;;;4.85;;
71677;SDS011;59511;52.136;6.206;2023-10-31T10:24:35;8.32;;;4.60;;
71677;SDS011;59511;52.136;6.206;2023-10-31T10:27:00;8.13;;;5.50;;
71677;SDS011;59511;52.136;6.206;2023-10-31T10:29:26;9.17;;;5.53;;
71677;SDS011;59511;52.136;6.206;2023-10-31T10:31:51;8.17;;;5.07;;
71677;SDS011;59511;52.136;6.206;2023-10-31T10:34:17;8.00;;;5.00;;
71677;SDS011;59511;52.136;6.206;2023-10-31T10:36:45;7.40;;;5.23;;
71677;SDS011;59511;52.136;6.206;2023-10-31T10:39:12;9.27;;;5.50;;
71677;SDS011;59511;52.136;6.206;2023-10-31T10:41:43;9.00;;;5.10;;
71677;SDS011;59511;52.136;6.206;2023-10-31T10:44:11;9.70;;;5.68;;
71677;SDS011;59511;52.136;6.206;2023-10-31T10:46:38;7.87;;;4.90;;
71677;SDS011;59511;52.136;6.206;2023-10-31T10:49:06;8.48;;;5.30;;
71677;SDS011;59511;52.136;6.206;2023-10-31T10:54:19;8.23;;;5.28;;
71677;SDS011;59511;52.136;6.206;2023-10-31T10:56:58;8.98;;;5.45;;
71677;SDS011;59511;52.136;6.206;2023-10-31T10:59:38;7.87;;;5.53;;
71677;SDS011;59511;52.136;6.206;2023-10-31T11:02:06;7.80;;;5.07;;
71677;SDS011;59511;52.136;6.206;2023-10-31T11:04:33;8.38;;;5.65;;
71677;SDS011;59511;52.136;6.206;2023-10-31T11:06:59;8.10;;;5.45;;
71677;SDS011;59511;52.136;6.206;2023-10-31T11:09:25;8.90;;;5.57;;
71677;SDS011;59511;52.136;6.206;2023-10-31T11:11:51;8.02;;;4.93;;
71677;SDS011;59511;52.136;6.206;2023-10-31T11:14:18;7.57;;;5.03;;
71677;SDS011;59511;52.136;6.206;2023-10-31T11:16:45;8.27;;;5.23;;
71677;SDS011;59511;52.136;6.206;2023-10-31T11:19:16;8.20;;;5.45;;
71677;SDS011;59511;52.136;6.206;2023-10-31T11:21:58;9.50;;;5.53;;
71677;SDS011;59511;52.136;6.206;2023-10-31T11:24:29;8.40;;;5.13;;
71677;SDS011;59511;52.136;6.206;2023-10-31T11:27:03;7.78;;;4.93;;
71677;SDS011;59511;52.136;6.206;2023-10-31T11:29:30;9.07;;;5.40;;
71677;SDS011;59511;52.136;6.206;2023-10-31T11:31:56;7.85;;;5.22;;
71677;SDS011;59511;52.136;6.206;2023-10-31T11:34:22;8.52;;;5.43;;
71677;SDS011;59511;52.136;6.206;2023-10-31T11:36:51;7.60;;;5.22;;
71677;SDS011;59511;52.136;6.206;2023-10-31T11:39:20;8.48;;;5.28;;
71677;SDS011;59511;52.136;6.206;2023-10-31T11:41:53;7.33;;;4.90;;
71677;SDS011;59511;52.136;6.206;2023-10-31T11:44:22;7.80;;;5.13;;
71677;SDS011;59511;52.136;6.206;2023-10-31T11:46:50;7.97;;;5.07;;
71677;SDS011;59511;52.136;6.206;2023-10-31T11:49:17;7.55;;;4.88;;
71677;SDS011;59511;52.136;6.206;2023-10-31T11:51:46;9.80;;;5.30;;
71677;SDS011;59511;52.136;6.206;2023-10-31T11:54:13;8.17;;;5.30;;
71677;SDS011;59511;52.136;6.206;2023-10-31T11:56:38;8.65;;;5.18;;
71677;SDS011;59511;52.136;6.206;2023-10-31T11:59:04;7.47;;;4.87;;
71677;SDS011;59511;52.136;6.206;2023-10-31T12:01:33;7.22;;;5.03;;
71677;SDS011;59511;52.136;6.206;2023-10-31T12:03:58;7.63;;;4.90;;
71677;SDS011;59511;52.136;6.206;2023-10-31T12:06:24;7.70;;;4.90;;
71677;SDS011;59511;52.136;6.206;2023-10-31T12:08:49;6.80;;;4.50;;
71677;SDS011;59511;52.136;6.206;2023-10-31T12:11:16;8.03;;;4.93;;
71677;SDS011;59511;52.136;6.206;2023-10-31T12:13:58;8.00;;;4.60;;
71677;SDS011;59511;52.136;6.206;2023-10-31T12:16:29;8.02;;;4.80;;
71677;SDS011;59511;52.136;6.206;2023-10-31T12:18:59;7.88;;;4.88;;
71677;SDS011;59511;52.136;6.206;2023-10-31T12:21:36;8.67;;;5.10;;
71677;SDS011;59511;52.136;6.206;2023-10-31T12:24:08;6.90;;;4.63;;
71677;SDS011;59511;52.136;6.206;2023-10-31T12:26:37;6.93;;;4.82;;
71677;SDS011;59511;52.136;6.206;2023-10-31T12:29:19;7.75;;;4.70;;
71677;SDS011;59511;52.136;6.206;2023-10-31T12:31:49;7.53;;;4.97;;
71677;SDS011;59511;52.136;6.206;2023-10-31T12:34:17;8.07;;;4.67;;
71677;SDS011;59511;52.136;6.206;2023-10-31T12:36:45;7.32;;;4.78;;
71677;SDS011;59511;52.136;6.206;2023-10-31T12:39:12;6.93;;;4.57;;
71677;SDS011;59511;52.136;6.206;2023-10-31T12:41:39;6.13;;;4.57;;
71677;SDS011;59511;52.136;6.206;2023-10-31T12:44:06;7.20;;;4.70;;
71677;SDS011;59511;52.136;6.206;2023-10-31T12:46:39;7.30;;;4.97;;
71677;SDS011;59511;52.136;6.206;2023-10-31T12:49:10;7.05;;;4.90;;
71677;SDS011;59511;52.136;6.206;2023-10-31T12:51:38;7.78;;;5.25;;
71677;SDS011;59511;52.136;6.206;2023-10-31T12:54:03;7.77;;;5.03;;
71677;SDS011;59511;52.136;6.206;2023-10-31T12:56:36;7.13;;;4.73;;
71677;SDS011;59511;52.136;6.206;2023-10-31T12:59:04;7.43;;;4.90;;
71677;SDS011;59511;52.136;6.206;2023-10-31T13:01:36;7.50;;;5.10;;
71677;SDS011;59511;52.136;6.206;2023-10-31T13:04:05;7.25;;;4.78;;
71677;SDS011;59511;52.136;6.206;2023-10-31T13:06:31;7.70;;;5.18;;
71677;SDS011;59511;52.136;6.206;2023-10-31T13:08:56;7.97;;;5.20;;
71677;SDS011;59511;52.136;6.206;2023-10-31T13:11:22;6.43;;;4.40;;
71677;SDS011;59511;52.136;6.206;2023-10-31T13:13:51;8.97;;;4.80;;
71677;SDS011;59511;52.136;6.206;2023-10-31T13:16:18;7.20;;;4.68;;
71677;SDS011;59511;52.136;6.206;2023-10-31T13:18:43;7.28;;;5.00;;
71677;SDS011;59511;52.136;6.206;2023-10-31T13:21:09;7.27;;;5.07;;
71677;SDS011;59511;52.136;6.206;2023-10-31T13:23:35;7.78;;;5.15;;
71677;SDS011;59511;52.136;6.206;2023-10-31T13:26:03;7.10;;;4.80;;
71677;SDS011;59511;52.136;6.206;2023-10-31T13:28:28;6.33;;;4.50;;
71677;SDS011;59511;52.136;6.206;2023-10-31T13:30:55;7.07;;;4.88;;
71677;SDS011;59511;52.136;6.206;2023-10-31T13:33:21;6.73;;;4.43;;
71677;SDS011;59511;52.136;6.206;2023-10-31T13:35:46;6.93;;;4.37;;
71677;SDS011;59511;52.136;6.206;2023-10-31T13:38:12;8.65;;;5.28;;
71677;SDS011;59511;52.136;6.206;2023-10-31T13:40:37;6.50;;;4.43;;
71677;SDS011;59511;52.136;6.206;2023-10-31T13:43:03;6.17;;;4.57;;
71677;SDS011;59511;52.136;6.206;2023-10-31T13:45:30;6.97;;;4.43;;
71677;SDS011;59511;52.136;6.206;2023-10-31T13:47:55;6.77;;;4.20;;
71677;SDS011;59511;52.136;6.206;2023-10-31T13:50:20;7.40;;;4.33;;
71677;SDS011;59511;52.136;6.206;2023-10-31T13:52:46;6.70;;;4.55;;
71677;SDS011;59511;52.136;6.206;2023-10-31T13:55:11;6.70;;;4.20;;
71677;SDS011;59511;52.136;6.206;2023-10-31T13:57:37;6.73;;;4.20;;
71677;SDS011;59511;52.136;6.206;2023-10-31T14:00:02;6.53;;;4.23;;
71677;SDS011;59511;52.136;6.206;2023-10-31T14:02:28;6.28;;;4.13;;
71677;SDS011;59511;52.136;6.206;2023-10-31T14:04:53;6.77;;;4.30;;
71677;SDS011;59511;52.136;6.206;2023-10-31T14:07:20;6.10;;;4.30;;
71677;SDS011;59511;52.136;6.206;2023-10-31T14:09:49;5.90;;;3.93;;
71677;SDS011;59511;52.136;6.206;2023-10-31T14:12:15;6.43;;;4.10;;
71677;SDS011;59511;52.136;6.206;2023-10-31T14:14:41;5.67;;;3.77;;
71677;SDS011;59511;52.136;6.206;2023-10-31T14:17:06;6.25;;;3.90;;
71677;SDS011;59511;52.136;6.206;2023-10-31T14:19:31;6.83;;;4.20;;
71677;SDS011;59511;52.136;6.206;2023-10-31T14:21:57;6.23;;;4.13;;
71677;SDS011;59511;52.136;6.206;2023-10-31T14:24:22;5.60;;;3.80;;
71677;SDS011;59511;52.136;6.206;2023-10-31T14:26:47;6.17;;;3.60;;
71677;SDS011;59511;52.136;6.206;2023-10-31T14:29:13;5.60;;;3.90;;
71677;SDS011;59511;52.136;6.206;2023-10-31T14:31:39;6.20;;;3.77;;
71677;SDS011;59511;52.136;6.206;2023-10-31T14:34:06;6.22;;;3.80;;
71677;SDS011;59511;52.136;6.206;2023-10-31T14:36:31;5.83;;;3.70;;